sensor_id;sensor_type;location;lat;lon;timestamp;pressure;altitude;pressure_sealevel;temperature;humidity
64453;BME280;50813;52.654;6.766;2023-02-28T00:01:10;103142.0;;;3.66;97.18
64453;BME280;50813;52.654;6.766;2023-02-28T00:02:47;103144.0;;;3.62;97.47
64453;BME280;50813;52.654;6.766;2023-02-28T00:04:24;103140.00000000001;;;3.6;97.79
64453;BME280;50813;52.654;6.766;2023-02-28T00:06:01;103146.0;;;3.61;97.96
64453;BME280;50813;52.654;6.766;2023-02-28T00:09:14;103146.0;;;3.59;98.4
64453;BME280;50813;52.654;6.766;2023-02-28T00:10:50;103141.00000000001;;;3.57;98.39
64453;BME280;50813;52.654;6.766;2023-02-28T00:12:27;103142.0;;;3.6;98.83
64453;BME280;50813;52.654;6.766;2023-02-28T00:15:39;103145.0;;;3.6;98.56
64453;BME280;50813;52.654;6.766;2023-02-28T00:17:15;103144.0;;;3.65;98.25
64453;BME280;50813;52.654;6.766;2023-02-28T00:18:51;103147.0;;;3.72;98.04
64453;BME280;50813;52.654;6.766;2023-02-28T00:22:03;103145.0;;;3.67;98.15
64453;BME280;50813;52.654;6.766;2023-02-28T00:23:39;103146.0;;;3.73;98.36
64453;BME280;50813;52.654;6.766;2023-02-28T00:25:17;103146.0;;;3.86;97.42
64453;BME280;50813;52.654;6.766;2023-02-28T00:26:55;103140.00000000001;;;3.79;97.14
64453;BME280;50813;52.654;6.766;2023-02-28T00:30:11;103141.00000000001;;;3.68;98.15
64453;BME280;50813;52.654;6.766;2023-02-28T00:31:51;103147.0;;;3.7;97.99
64453;BME280;50813;52.654;6.766;2023-02-28T00:33:27;103143.0;;;3.69;98.11
64453;BME280;50813;52.654;6.766;2023-02-28T00:36:42;103142.0;;;3.68;98.32
64453;BME280;50813;52.654;6.766;2023-02-28T00:38:19;103144.0;;;3.73;97.96
64453;BME280;50813;52.654;6.766;2023-02-28T00:39:56;103142.0;;;3.72;98.15
64453;BME280;50813;52.654;6.766;2023-02-28T00:43:08;103144.0;;;3.65;98.49
64453;BME280;50813;52.654;6.766;2023-02-28T00:44:44;103141.00000000001;;;3.67;98.4
64453;BME280;50813;52.654;6.766;2023-02-28T00:46:20;103141.00000000001;;;3.71;98.15
64453;BME280;50813;52.654;6.766;2023-02-28T00:47:57;103142.0;;;3.73;98.1
64453;BME280;50813;52.654;6.766;2023-02-28T00:51:09;103142.0;;;3.73;97.83
64453;BME280;50813;52.654;6.766;2023-02-28T00:52:45;103134.99999999999;;;3.73;98.06
64453;BME280;50813;52.654;6.766;2023-02-28T00:54:23;103134.99999999999;;;3.69;98.45
64453;BME280;50813;52.654;6.766;2023-02-28T00:57:35;103140.00000000001;;;3.71;98.39
64453;BME280;50813;52.654;6.766;2023-02-28T00:59:12;103139.00000000001;;;3.72;98.43
64453;BME280;50813;52.654;6.766;2023-02-28T01:00:49;103136.99999999999;;;3.76;98.34
64453;BME280;50813;52.654;6.766;2023-02-28T01:04:02;103133.99999999999;;;3.75;98.57
64453;BME280;50813;52.654;6.766;2023-02-28T01:05:38;103139.00000000001;;;3.75;98.46
64453;BME280;50813;52.654;6.766;2023-02-28T01:07:14;103138.00000000001;;;3.72;98.63
64453;BME280;50813;52.654;6.766;2023-02-28T01:08:51;103133.0;;;3.79;98.32
64453;BME280;50813;52.654;6.766;2023-02-28T01:12:04;103138.00000000001;;;3.76;98.81
64453;BME280;50813;52.654;6.766;2023-02-28T01:13:40;103134.99999999999;;;3.77;98.91
64453;BME280;50813;52.654;6.766;2023-02-28T01:15:17;103136.99999999999;;;3.73;99.18
64453;BME280;50813;52.654;6.766;2023-02-28T01:18:29;103134.99999999999;;;3.82;98.95
64453;BME280;50813;52.654;6.766;2023-02-28T01:20:06;103129.0;;;3.93;98.3
64453;BME280;50813;52.654;6.766;2023-02-28T01:21:42;103128.0;;;3.92;98.12
64453;BME280;50813;52.654;6.766;2023-02-28T01:24:56;103132.0;;;3.89;98.14
64453;BME280;50813;52.654;6.766;2023-02-28T01:26:32;103127.0;;;3.86;98.79
64453;BME280;50813;52.654;6.766;2023-02-28T01:28:08;103127.0;;;3.77;99.93
64453;BME280;50813;52.654;6.766;2023-02-28T01:29:44;103126.0;;;3.79;100.0
64453;BME280;50813;52.654;6.766;2023-02-28T01:32:59;103133.99999999999;;;3.75;100.0
64453;BME280;50813;52.654;6.766;2023-02-28T01:34:35;103126.0;;;3.76;100.0
64453;BME280;50813;52.654;6.766;2023-02-28T01:36:13;103128.0;;;3.72;100.0
64453;BME280;50813;52.654;6.766;2023-02-28T01:39:27;103130.0;;;3.78;100.0
64453;BME280;50813;52.654;6.766;2023-02-28T01:41:04;103125.0;;;3.79;100.0
64453;BME280;50813;52.654;6.766;2023-02-28T01:42:40;103124.0;;;3.89;100.0
64453;BME280;50813;52.654;6.766;2023-02-28T01:47:02;103127.0;;;3.91;100.0
64453;BME280;50813;52.654;6.766;2023-02-28T01:48:41;103125.0;;;3.86;100.0
64453;BME280;50813;52.654;6.766;2023-02-28T01:51:58;103132.0;;;3.85;100.0
64453;BME280;50813;52.654;6.766;2023-02-28T01:53:38;103132.0;;;3.78;100.0
64453;BME280;50813;52.654;6.766;2023-02-28T01:55:19;103132.0;;;3.86;100.0
64453;BME280;50813;52.654;6.766;2023-02-28T01:57:01;103132.0;;;3.92;100.0
64453;BME280;50813;52.654;6.766;2023-02-28T02:00:20;103134.99999999999;;;4.01;100.0
64453;BME280;50813;52.654;6.766;2023-02-28T02:01:59;103132.0;;;4.12;99.57
64453;BME280;50813;52.654;6.766;2023-02-28T02:03:36;103133.0;;;4.08;99.2
64453;BME280;50813;52.654;6.766;2023-02-28T02:06:53;103132.0;;;3.98;100.0
64453;BME280;50813;52.654;6.766;2023-02-28T02:08:31;103134.99999999999;;;3.97;100.0
64453;BME280;50813;52.654;6.766;2023-02-28T02:10:12;103133.0;;;3.96;100.0
64453;BME280;50813;52.654;6.766;2023-02-28T02:11:51;103132.0;;;3.98;100.0
64453;BME280;50813;52.654;6.766;2023-02-28T02:15:32;103127.0;;;4.08;100.0
64453;BME280;50813;52.654;6.766;2023-02-28T02:17:18;103124.0;;;4.16;99.69
64453;BME280;50813;52.654;6.766;2023-02-28T02:19:11;103119.0;;;4.12;99.83
64453;BME280;50813;52.654;6.766;2023-02-28T02:21:16;103120.0;;;4.09;99.82
64453;BME280;50813;52.654;6.766;2023-02-28T02:24:50;103119.0;;;4.2;99.46
64453;BME280;50813;52.654;6.766;2023-02-28T02:27:04;103127.0;;;4.12;100.0
64453;BME280;50813;52.654;6.766;2023-02-28T02:30:09;103126.0;;;4.12;100.0
64453;BME280;50813;52.654;6.766;2023-02-28T02:32:35;103120.0;;;4.05;100.0
64453;BME280;50813;52.654;6.766;2023-02-28T02:35:28;103119.0;;;3.98;100.0
64453;BME280;50813;52.654;6.766;2023-02-28T02:37:15;103118.0;;;4.21;99.67
64453;BME280;50813;52.654;6.766;2023-02-28T02:39:02;103116.00000000001;;;4.24;99.28
64453;BME280;50813;52.654;6.766;2023-02-28T02:42:38;103117.0;;;4.12;99.39
64453;BME280;50813;52.654;6.766;2023-02-28T02:44:20;103114.00000000001;;;4.09;99.99
64453;BME280;50813;52.654;6.766;2023-02-28T02:46:01;103116.00000000001;;;4.03;99.94
64453;BME280;50813;52.654;6.766;2023-02-28T02:47:40;103117.0;;;3.98;100.0
64453;BME280;50813;52.654;6.766;2023-02-28T02:49:22;103117.0;;;4.03;100.0
64453;BME280;50813;52.654;6.766;2023-02-28T02:52:44;103106.0;;;4.33;99.93
64453;BME280;50813;52.654;6.766;2023-02-28T02:54:34;103108.99999999999;;;4.3;99.06
64453;BME280;50813;52.654;6.766;2023-02-28T02:56:13;103113.00000000001;;;4.14;99.51
64453;BME280;50813;52.654;6.766;2023-02-28T02:57:54;103113.00000000001;;;4.08;99.96
64453;BME280;50813;52.654;6.766;2023-02-28T03:01:17;103114.00000000001;;;4.09;100.0
64453;BME280;50813;52.654;6.766;2023-02-28T03:02:56;103120.0;;;3.97;100.0
64453;BME280;50813;52.654;6.766;2023-02-28T03:04:39;103120.0;;;3.95;100.0
64453;BME280;50813;52.654;6.766;2023-02-28T03:06:18;103122.0;;;3.9;100.0
64453;BME280;50813;52.654;6.766;2023-02-28T03:09:33;103118.0;;;4.01;100.0
64453;BME280;50813;52.654;6.766;2023-02-28T03:11:13;103113.00000000001;;;4.16;100.0
64453;BME280;50813;52.654;6.766;2023-02-28T03:12:55;103119.0;;;4.04;100.0
64453;BME280;50813;52.654;6.766;2023-02-28T03:14:49;103108.99999999999;;;4.26;100.0
64453;BME280;50813;52.654;6.766;2023-02-28T03:16:35;103117.0;;;4.07;100.0
64453;BME280;50813;52.654;6.766;2023-02-28T03:20:07;103108.99999999999;;;4.14;100.0
64453;BME280;50813;52.654;6.766;2023-02-28T03:21:58;103111.99999999999;;;4.17;100.0
64453;BME280;50813;52.654;6.766;2023-02-28T03:23:45;103113.00000000001;;;3.93;100.0
64453;BME280;50813;52.654;6.766;2023-02-28T03:25:32;103111.99999999999;;;4.03;100.0
64453;BME280;50813;52.654;6.766;2023-02-28T03:27:17;103108.99999999999;;;3.94;100.0
64453;BME280;50813;52.654;6.766;2023-02-28T03:29:02;103106.0;;;3.96;100.0
64453;BME280;50813;52.654;6.766;2023-02-28T03:32:29;103108.0;;;4.05;100.0
64453;BME280;50813;52.654;6.766;2023-02-28T03:34:13;103107.0;;;3.99;100.0
64453;BME280;50813;52.654;6.766;2023-02-28T03:35:56;103111.99999999999;;;3.98;100.0
64453;BME280;50813;52.654;6.766;2023-02-28T03:37:38;103117.0;;;4.12;100.0
64453;BME280;50813;52.654;6.766;2023-02-28T03:41:04;103118.0;;;4.03;99.35
64453;BME280;50813;52.654;6.766;2023-02-28T03:42:43;103120.0;;;3.97;99.58
64453;BME280;50813;52.654;6.766;2023-02-28T03:44:24;103115.00000000001;;;4.01;99.89
64453;BME280;50813;52.654;6.766;2023-02-28T03:46:08;103116.00000000001;;;3.91;100.0
64453;BME280;50813;52.654;6.766;2023-02-28T03:47:51;103119.0;;;3.93;100.0
64453;BME280;50813;52.654;6.766;2023-02-28T03:51:14;103119.0;;;4.04;100.0
64453;BME280;50813;52.654;6.766;2023-02-28T03:52:55;103125.0;;;4.07;98.88
64453;BME280;50813;52.654;6.766;2023-02-28T03:54:41;103124.0;;;4.1;98.48
64453;BME280;50813;52.654;6.766;2023-02-28T03:56:24;103126.0;;;3.93;98.0
64453;BME280;50813;52.654;6.766;2023-02-28T03:59:55;103123.0;;;3.98;97.75
64453;BME280;50813;52.654;6.766;2023-02-28T04:01:38;103123.0;;;3.92;97.7
64453;BME280;50813;52.654;6.766;2023-02-28T04:03:16;103115.00000000001;;;3.91;97.74
64453;BME280;50813;52.654;6.766;2023-02-28T04:04:52;103115.00000000001;;;3.88;97.38
64453;BME280;50813;52.654;6.766;2023-02-28T04:08:08;103115.00000000001;;;3.89;97.15
64453;BME280;50813;52.654;6.766;2023-02-28T04:09:44;103119.0;;;3.94;95.75
64453;BME280;50813;52.654;6.766;2023-02-28T04:11:22;103118.0;;;3.87;96.03
64453;BME280;50813;52.654;6.766;2023-02-28T04:13:02;103116.00000000001;;;3.8;95.37
64453;BME280;50813;52.654;6.766;2023-02-28T04:16:15;103126.0;;;4.0;95.0
64453;BME280;50813;52.654;6.766;2023-02-28T04:17:52;103122.0;;;3.89;93.97
64453;BME280;50813;52.654;6.766;2023-02-28T04:19:28;103127.0;;;3.92;91.9
64453;BME280;50813;52.654;6.766;2023-02-28T04:22:41;103126.0;;;3.94;91.21
64453;BME280;50813;52.654;6.766;2023-02-28T04:24:19;103128.0;;;3.77;92.66
64453;BME280;50813;52.654;6.766;2023-02-28T04:25:56;103123.0;;;3.81;92.6
64453;BME280;50813;52.654;6.766;2023-02-28T04:27:33;103117.0;;;3.76;91.51
64453;BME280;50813;52.654;6.766;2023-02-28T04:30:54;103115.00000000001;;;3.72;92.8
64453;BME280;50813;52.654;6.766;2023-02-28T04:32:31;103118.0;;;3.82;93.32
64453;BME280;50813;52.654;6.766;2023-02-28T04:34:07;103114.00000000001;;;3.86;93.24
64453;BME280;50813;52.654;6.766;2023-02-28T04:37:19;103115.00000000001;;;3.77;94.42
64453;BME280;50813;52.654;6.766;2023-02-28T04:38:56;103118.0;;;3.83;93.92
64453;BME280;50813;52.654;6.766;2023-02-28T04:40:33;103116.00000000001;;;3.82;93.17
64453;BME280;50813;52.654;6.766;2023-02-28T04:42:09;103121.0;;;3.87;92.41
64453;BME280;50813;52.654;6.766;2023-02-28T04:45:22;103123.0;;;3.9;91.01
64453;BME280;50813;52.654;6.766;2023-02-28T04:46:58;103117.0;;;3.71;92.25
64453;BME280;50813;52.654;6.766;2023-02-28T04:48:37;103111.99999999999;;;3.82;91.9
64453;BME280;50813;52.654;6.766;2023-02-28T04:51:50;103114.00000000001;;;3.91;90.72
64453;BME280;50813;52.654;6.766;2023-02-28T04:53:27;103123.0;;;3.86;90.7
64453;BME280;50813;52.654;6.766;2023-02-28T04:55:05;103121.0;;;3.79;89.77
64453;BME280;50813;52.654;6.766;2023-02-28T04:58:18;103119.0;;;3.73;90.2
64453;BME280;50813;52.654;6.766;2023-02-28T04:59:54;103119.0;;;3.6;90.93
64453;BME280;50813;52.654;6.766;2023-02-28T05:01:32;103118.0;;;3.67;90.09
64453;BME280;50813;52.654;6.766;2023-02-28T05:03:09;103122.0;;;3.63;90.71
64453;BME280;50813;52.654;6.766;2023-02-28T05:06:22;103120.0;;;3.99;88.68
64453;BME280;50813;52.654;6.766;2023-02-28T05:07:59;103113.00000000001;;;3.68;89.08
64453;BME280;50813;52.654;6.766;2023-02-28T05:09:35;103117.0;;;3.59;90.54
64453;BME280;50813;52.654;6.766;2023-02-28T05:12:52;103126.0;;;3.63;90.0
64453;BME280;50813;52.654;6.766;2023-02-28T05:14:29;103125.0;;;3.68;89.44
64453;BME280;50813;52.654;6.766;2023-02-28T05:16:05;103116.00000000001;;;3.67;88.79
64453;BME280;50813;52.654;6.766;2023-02-28T05:17:42;103113.00000000001;;;3.73;89.09
64453;BME280;50813;52.654;6.766;2023-02-28T05:20:55;103120.0;;;3.7;89.01
64453;BME280;50813;52.654;6.766;2023-02-28T05:22:31;103118.0;;;3.68;89.17
64453;BME280;50813;52.654;6.766;2023-02-28T05:24:10;103115.00000000001;;;3.7;89.97
64453;BME280;50813;52.654;6.766;2023-02-28T05:27:24;103123.0;;;3.71;88.65
64453;BME280;50813;52.654;6.766;2023-02-28T05:29:00;103124.0;;;3.61;88.82
64453;BME280;50813;52.654;6.766;2023-02-28T05:30:36;103119.0;;;3.61;89.01
64453;BME280;50813;52.654;6.766;2023-02-28T05:33:50;103122.0;;;3.6;89.33
64453;BME280;50813;52.654;6.766;2023-02-28T05:35:26;103121.0;;;3.54;89.45
64453;BME280;50813;52.654;6.766;2023-02-28T05:37:02;103124.0;;;3.51;89.38
64453;BME280;50813;52.654;6.766;2023-02-28T05:38:39;103124.0;;;3.5;89.06
64453;BME280;50813;52.654;6.766;2023-02-28T05:41:52;103128.0;;;3.51;89.01
64453;BME280;50813;52.654;6.766;2023-02-28T05:43:28;103127.0;;;3.48;89.84
64453;BME280;50813;52.654;6.766;2023-02-28T05:45:05;103127.0;;;3.48;90.27
64453;BME280;50813;52.654;6.766;2023-02-28T05:48:17;103128.0;;;3.53;90.33
64453;BME280;50813;52.654;6.766;2023-02-28T05:49:54;103133.99999999999;;;3.55;90.7
64453;BME280;50813;52.654;6.766;2023-02-28T05:51:30;103124.0;;;3.49;90.94
64453;BME280;50813;52.654;6.766;2023-02-28T05:54:42;103132.0;;;3.45;91.44
64453;BME280;50813;52.654;6.766;2023-02-28T05:56:18;103139.00000000001;;;3.48;91.98
64453;BME280;50813;52.654;6.766;2023-02-28T05:57:55;103139.00000000001;;;3.43;91.51
64453;BME280;50813;52.654;6.766;2023-02-28T06:01:32;103144.0;;;3.51;91.25
64453;BME280;50813;52.654;6.766;2023-02-28T06:03:09;103140.00000000001;;;3.48;90.93
64453;BME280;50813;52.654;6.766;2023-02-28T06:04:45;103139.00000000001;;;3.51;90.31
64453;BME280;50813;52.654;6.766;2023-02-28T06:06:22;103142.0;;;3.52;90.33
64453;BME280;50813;52.654;6.766;2023-02-28T06:07:58;103143.0;;;3.44;89.74
64453;BME280;50813;52.654;6.766;2023-02-28T06:11:12;103144.0;;;3.45;89.63
64453;BME280;50813;52.654;6.766;2023-02-28T06:12:48;103150.0;;;3.4;90.14
64453;BME280;50813;52.654;6.766;2023-02-28T06:14:25;103149.0;;;3.46;90.61
64453;BME280;50813;52.654;6.766;2023-02-28T06:17:37;103142.0;;;3.63;90.19
64453;BME280;50813;52.654;6.766;2023-02-28T06:19:13;103136.99999999999;;;3.67;89.75
64453;BME280;50813;52.654;6.766;2023-02-28T06:20:52;103134.99999999999;;;3.54;90.66
64453;BME280;50813;52.654;6.766;2023-02-28T06:24:05;103136.99999999999;;;3.48;91.16
64453;BME280;50813;52.654;6.766;2023-02-28T06:25:44;103143.0;;;3.56;90.79
64453;BME280;50813;52.654;6.766;2023-02-28T06:27:21;103143.0;;;3.51;90.14
64453;BME280;50813;52.654;6.766;2023-02-28T06:28:57;103141.00000000001;;;3.68;90.41
64453;BME280;50813;52.654;6.766;2023-02-28T06:32:09;103142.0;;;3.55;91.27
64453;BME280;50813;52.654;6.766;2023-02-28T06:33:46;103138.00000000001;;;3.51;91.77
64453;BME280;50813;52.654;6.766;2023-02-28T06:35:22;103136.99999999999;;;3.56;92.19
64453;BME280;50813;52.654;6.766;2023-02-28T06:38:36;103140.00000000001;;;3.52;92.46
64453;BME280;50813;52.654;6.766;2023-02-28T06:40:14;103142.0;;;3.52;92.48
64453;BME280;50813;52.654;6.766;2023-02-28T06:41:51;103144.0;;;3.48;91.9
64453;BME280;50813;52.654;6.766;2023-02-28T06:45:06;103147.0;;;3.57;91.28
64453;BME280;50813;52.654;6.766;2023-02-28T06:46:44;103150.0;;;3.8;90.19
64453;BME280;50813;52.654;6.766;2023-02-28T06:48:20;103149.0;;;3.83;88.47
64453;BME280;50813;52.654;6.766;2023-02-28T06:49:57;103157.0;;;3.69;89.8
64453;BME280;50813;52.654;6.766;2023-02-28T06:53:09;103165.00000000001;;;3.69;90.91
64453;BME280;50813;52.654;6.766;2023-02-28T06:54:45;103164.00000000001;;;3.86;90.71
64453;BME280;50813;52.654;6.766;2023-02-28T06:56:21;103167.0;;;3.83;90.61
64453;BME280;50813;52.654;6.766;2023-02-28T06:59:35;103170.0;;;3.83;90.55
64453;BME280;50813;52.654;6.766;2023-02-28T07:01:11;103176.0;;;3.81;89.52
64453;BME280;50813;52.654;6.766;2023-02-28T07:02:49;103177.0;;;3.86;88.58
64453;BME280;50813;52.654;6.766;2023-02-28T07:04:25;103175.0;;;3.9;88.14
64453;BME280;50813;52.654;6.766;2023-02-28T07:07:39;103181.0;;;4.01;86.07
64453;BME280;50813;52.654;6.766;2023-02-28T07:09:15;103180.0;;;4.07;85.22
64453;BME280;50813;52.654;6.766;2023-02-28T07:10:52;103177.0;;;4.12;85.47
64453;BME280;50813;52.654;6.766;2023-02-28T07:14:05;103182.0;;;4.16;85.79
64453;BME280;50813;52.654;6.766;2023-02-28T07:15:41;103180.0;;;4.12;86.64
64453;BME280;50813;52.654;6.766;2023-02-28T07:17:17;103188.00000000001;;;4.18;86.65
64453;BME280;50813;52.654;6.766;2023-02-28T07:20:30;103192.0;;;4.04;86.56
64453;BME280;50813;52.654;6.766;2023-02-28T07:22:07;103194.0;;;4.07;86.55
64453;BME280;50813;52.654;6.766;2023-02-28T07:23:44;103194.0;;;4.1;85.89
64453;BME280;50813;52.654;6.766;2023-02-28T07:25:20;103194.0;;;4.05;86.93
64453;BME280;50813;52.654;6.766;2023-02-28T07:28:33;103192.0;;;4.1;86.9
64453;BME280;50813;52.654;6.766;2023-02-28T07:30:10;103193.0;;;4.24;86.29
64453;BME280;50813;52.654;6.766;2023-02-28T07:31:46;103199.0;;;4.12;87.26
64453;BME280;50813;52.654;6.766;2023-02-28T07:34:59;103199.0;;;4.16;87.19
64453;BME280;50813;52.654;6.766;2023-02-28T07:36:35;103205.0;;;4.1;87.68
64453;BME280;50813;52.654;6.766;2023-02-28T07:38:11;103206.0;;;4.03;87.96
64453;BME280;50813;52.654;6.766;2023-02-28T07:41:23;103205.0;;;3.87;89.08
64453;BME280;50813;52.654;6.766;2023-02-28T07:43:00;103206.0;;;3.83;88.76
64453;BME280;50813;52.654;6.766;2023-02-28T07:44:37;103209.99999999999;;;3.87;88.57
64453;BME280;50813;52.654;6.766;2023-02-28T07:47:52;103215.00000000001;;;3.92;87.56
64453;BME280;50813;52.654;6.766;2023-02-28T07:49:29;103217.0;;;3.92;88.14
64453;BME280;50813;52.654;6.766;2023-02-28T07:51:05;103221.0;;;3.89;89.25
64453;BME280;50813;52.654;6.766;2023-02-28T07:52:41;103218.0;;;3.83;90.69
64453;BME280;50813;52.654;6.766;2023-02-28T07:55:55;103223.0;;;3.88;91.28
64453;BME280;50813;52.654;6.766;2023-02-28T07:57:32;103226.0;;;3.93;90.32
64453;BME280;50813;52.654;6.766;2023-02-28T07:59:07;103221.0;;;4.01;90.14
64453;BME280;50813;52.654;6.766;2023-02-28T08:02:20;103217.0;;;3.85;90.72
64453;BME280;50813;52.654;6.766;2023-02-28T08:03:56;103220.0;;;3.91;90.04
64453;BME280;50813;52.654;6.766;2023-02-28T08:05:32;103217.0;;;4.07;88.62
64453;BME280;50813;52.654;6.766;2023-02-28T08:08:45;103224.0;;;4.18;87.11
64453;BME280;50813;52.654;6.766;2023-02-28T08:10:21;103222.0;;;4.14;86.64
64453;BME280;50813;52.654;6.766;2023-02-28T08:11:57;103224.0;;;4.37;86.59
64453;BME280;50813;52.654;6.766;2023-02-28T08:13:33;103226.0;;;4.36;84.44
64453;BME280;50813;52.654;6.766;2023-02-28T08:18:23;103219.0;;;4.47;82.48
64453;BME280;50813;52.654;6.766;2023-02-28T08:20:00;103222.0;;;4.46;81.69
64453;BME280;50813;52.654;6.766;2023-02-28T08:23:12;103220.0;;;4.53;81.3
64453;BME280;50813;52.654;6.766;2023-02-28T08:24:49;103219.0;;;4.7;79.94
64453;BME280;50813;52.654;6.766;2023-02-28T08:26:25;103219.0;;;4.74;79.56
64453;BME280;50813;52.654;6.766;2023-02-28T08:29:38;103218.0;;;4.57;79.91
64453;BME280;50813;52.654;6.766;2023-02-28T08:31:16;103220.0;;;4.53;80.47
64453;BME280;50813;52.654;6.766;2023-02-28T08:32:53;103221.0;;;4.43;80.24
64453;BME280;50813;52.654;6.766;2023-02-28T08:34:29;103222.0;;;4.51;80.27
64453;BME280;50813;52.654;6.766;2023-02-28T08:37:43;103224.0;;;4.57;79.58
64453;BME280;50813;52.654;6.766;2023-02-28T08:39:20;103227.0;;;4.68;79.19
64453;BME280;50813;52.654;6.766;2023-02-28T08:40:57;103221.0;;;4.87;80.02
64453;BME280;50813;52.654;6.766;2023-02-28T08:44:12;103221.0;;;4.92;78.19
64453;BME280;50813;52.654;6.766;2023-02-28T08:45:51;103221.0;;;5.14;71.95
64453;BME280;50813;52.654;6.766;2023-02-28T08:47:27;103221.0;;;5.31;71.3
64453;BME280;50813;52.654;6.766;2023-02-28T08:49:03;103221.0;;;5.35;69.16
64453;BME280;50813;52.654;6.766;2023-02-28T08:52:16;103227.0;;;5.53;68.72
64453;BME280;50813;52.654;6.766;2023-02-28T08:53:54;103226.0;;;5.93;69.52
64453;BME280;50813;52.654;6.766;2023-02-28T08:55:30;103229.0;;;6.1;67.95
64453;BME280;50813;52.654;6.766;2023-02-28T08:58:43;103228.0;;;6.46;67.72
64453;BME280;50813;52.654;6.766;2023-02-28T09:00:21;103226.0;;;6.57;65.77
64453;BME280;50813;52.654;6.766;2023-02-28T09:01:57;103221.0;;;6.63;63.92
64453;BME280;50813;52.654;6.766;2023-02-28T09:05:10;103228.0;;;6.62;60.5
64453;BME280;50813;52.654;6.766;2023-02-28T09:06:46;103228.0;;;6.86;61.24
64453;BME280;50813;52.654;6.766;2023-02-28T09:08:23;103226.0;;;7.02;59.68
64453;BME280;50813;52.654;6.766;2023-02-28T09:09:59;103233.99999999999;;;6.79;56.39
64453;BME280;50813;52.654;6.766;2023-02-28T09:13:12;103231.0;;;6.82;54.51
64453;BME280;50813;52.654;6.766;2023-02-28T09:14:49;103230.0;;;6.84;53.95
64453;BME280;50813;52.654;6.766;2023-02-28T09:16:25;103232.0;;;6.68;51.82
64453;BME280;50813;52.654;6.766;2023-02-28T09:19:37;103232.0;;;6.64;53.23
64453;BME280;50813;52.654;6.766;2023-02-28T09:21:15;103238.00000000001;;;6.56;52.09
64453;BME280;50813;52.654;6.766;2023-02-28T09:22:52;103233.99999999999;;;6.64;55.26
64453;BME280;50813;52.654;6.766;2023-02-28T09:26:05;103233.0;;;6.68;53.33
64453;BME280;50813;52.654;6.766;2023-02-28T09:27:42;103233.99999999999;;;6.67;51.44
64453;BME280;50813;52.654;6.766;2023-02-28T09:29:18;103236.99999999999;;;6.54;52.65
64453;BME280;50813;52.654;6.766;2023-02-28T09:30:54;103229.0;;;6.78;51.79
64453;BME280;50813;52.654;6.766;2023-02-28T09:34:07;103225.0;;;6.99;49.02
64453;BME280;50813;52.654;6.766;2023-02-28T09:35:44;103224.0;;;7.15;49.69
64453;BME280;50813;52.654;6.766;2023-02-28T09:37:20;103227.0;;;7.38;48.58
64453;BME280;50813;52.654;6.766;2023-02-28T09:40:35;103222.0;;;7.48;51.47
64453;BME280;50813;52.654;6.766;2023-02-28T09:42:21;103223.0;;;7.63;48.92
64453;BME280;50813;52.654;6.766;2023-02-28T09:44:07;103222.0;;;7.12;48.92
64453;BME280;50813;52.654;6.766;2023-02-28T09:45:53;103221.0;;;7.39;48.56
64453;BME280;50813;52.654;6.766;2023-02-28T09:49:14;103221.0;;;7.38;46.91
64453;BME280;50813;52.654;6.766;2023-02-28T09:50:55;103217.0;;;7.38;48.18
64453;BME280;50813;52.654;6.766;2023-02-28T09:52:36;103219.0;;;7.59;45.52
64453;BME280;50813;52.654;6.766;2023-02-28T09:54:15;103217.0;;;7.44;47.46
64453;BME280;50813;52.654;6.766;2023-02-28T09:57:37;103217.0;;;7.62;46.87
64453;BME280;50813;52.654;6.766;2023-02-28T09:59:32;103218.0;;;7.41;45.25
64453;BME280;50813;52.654;6.766;2023-02-28T10:01:23;103218.0;;;7.36;44.38
64453;BME280;50813;52.654;6.766;2023-02-28T10:03:24;103220.0;;;7.22;46.25
64453;BME280;50813;52.654;6.766;2023-02-28T10:05:05;103219.0;;;7.31;45.11
64453;BME280;50813;52.654;6.766;2023-02-28T10:06:46;103222.0;;;7.08;44.8
64453;BME280;50813;52.654;6.766;2023-02-28T10:12:04;103224.0;;;7.05;48.13
64453;BME280;50813;52.654;6.766;2023-02-28T10:13:50;103229.0;;;7.11;46.74
64453;BME280;50813;52.654;6.766;2023-02-28T10:15:30;103224.0;;;6.79;44.81
64453;BME280;50813;52.654;6.766;2023-02-28T10:17:11;103225.0;;;6.99;46.96
64453;BME280;50813;52.654;6.766;2023-02-28T10:20:38;103218.0;;;7.18;47.07
64453;BME280;50813;52.654;6.766;2023-02-28T10:24:03;103221.0;;;7.09;48.96
64453;BME280;50813;52.654;6.766;2023-02-28T10:25:57;103220.0;;;7.02;44.95
64453;BME280;50813;52.654;6.766;2023-02-28T10:27:34;103220.0;;;7.26;45.12
64453;BME280;50813;52.654;6.766;2023-02-28T10:30:49;103222.0;;;7.35;45.91
64453;BME280;50813;52.654;6.766;2023-02-28T10:32:29;103221.0;;;7.37;45.53
64453;BME280;50813;52.654;6.766;2023-02-28T10:34:07;103220.0;;;7.34;47.3
64453;BME280;50813;52.654;6.766;2023-02-28T10:35:47;103222.0;;;7.38;46.66
64453;BME280;50813;52.654;6.766;2023-02-28T10:39:34;103218.0;;;7.28;43.76
64453;BME280;50813;52.654;6.766;2023-02-28T10:41:13;103219.0;;;7.24;44.79
64453;BME280;50813;52.654;6.766;2023-02-28T10:42:57;103219.0;;;7.54;47.02
64453;BME280;50813;52.654;6.766;2023-02-28T10:44:34;103219.0;;;7.38;44.32
64453;BME280;50813;52.654;6.766;2023-02-28T10:46:14;103218.0;;;7.58;45.57
64453;BME280;50813;52.654;6.766;2023-02-28T10:49:31;103217.0;;;7.75;45.83
64453;BME280;50813;52.654;6.766;2023-02-28T10:51:08;103217.0;;;7.8;46.91
64453;BME280;50813;52.654;6.766;2023-02-28T10:52:46;103217.0;;;7.77;46.35
64453;BME280;50813;52.654;6.766;2023-02-28T10:56:05;103221.0;;;7.86;47.6
64453;BME280;50813;52.654;6.766;2023-02-28T10:57:49;103221.0;;;7.94;45.25
64453;BME280;50813;52.654;6.766;2023-02-28T10:59:30;103219.0;;;8.05;43.66
64453;BME280;50813;52.654;6.766;2023-02-28T11:01:14;103217.0;;;8.02;43.47
64453;BME280;50813;52.654;6.766;2023-02-28T11:04:35;103217.0;;;7.98;44.33
64453;BME280;50813;52.654;6.766;2023-02-28T11:06:16;103216.00000000001;;;7.86;43.35